sensor_id;sensor_type;location;lat;lon;timestamp;P1;durP1;ratioP1;P2;durP2;ratioP2
24273;SDS011;12392;42.678;23.380;2023-02-01T00:01:41;2.95;;;2.28;;
24273;SDS011;12392;42.678;23.380;2023-02-01T00:04:07;5.32;;;2.45;;
24273;SDS011;12392;42.678;23.380;2023-02-01T00:06:33;3.65;;;2.53;;
24273;SDS011;12392;42.678;23.380;2023-02-01T00:08:59;5.43;;;2.45;;
24273;SDS011;12392;42.678;23.380;2023-02-01T00:11:24;4.45;;;2.78;;
24273;SDS011;12392;42.678;23.380;2023-02-01T00:13:50;3.55;;;2.70;;
24273;SDS011;12392;42.678;23.380;2023-02-01T00:18:44;3.42;;;2.20;;
24273;SDS011;12392;42.678;23.380;2023-02-01T00:21:11;4.72;;;2.88;;
24273;SDS011;12392;42.678;23.380;2023-02-01T00:23:37;2.40;;;2.20;;
24273;SDS011;12392;42.678;23.380;2023-02-01T00:26:09;4.85;;;3.28;;
24273;SDS011;12392;42.678;23.380;2023-02-01T00:28:48;2.90;;;2.40;;
24273;SDS011;12392;42.678;23.380;2023-02-01T00:31:14;3.70;;;2.53;;
24273;SDS011;12392;42.678;23.380;2023-02-01T00:33:40;3.40;;;2.10;;
24273;SDS011;12392;42.678;23.380;2023-02-01T00:36:06;4.18;;;2.40;;
24273;SDS011;12392;42.678;23.380;2023-02-01T00:38:33;4.30;;;2.38;;
24273;SDS011;12392;42.678;23.380;2023-02-01T00:43:39;3.47;;;2.13;;
24273;SDS011;12392;42.678;23.380;2023-02-01T00:46:05;4.28;;;2.47;;
24273;SDS011;12392;42.678;23.380;2023-02-01T00:48:31;3.00;;;2.35;;
24273;SDS011;12392;42.678;23.380;2023-02-01T00:51:05;2.75;;;1.92;;
24273;SDS011;12392;42.678;23.380;2023-02-01T00:53:32;3.47;;;2.03;;
24273;SDS011;12392;42.678;23.380;2023-02-01T00:55:58;4.93;;;3.00;;
24273;SDS011;12392;42.678;23.380;2023-02-01T00:58:24;2.63;;;2.17;;
24273;SDS011;12392;42.678;23.380;2023-02-01T01:01:13;4.13;;;2.15;;
24273;SDS011;12392;42.678;23.380;2023-02-01T01:03:38;1.85;;;1.65;;
24273;SDS011;12392;42.678;23.380;2023-02-01T01:06:06;4.55;;;2.15;;
24273;SDS011;12392;42.678;23.380;2023-02-01T01:08:37;4.25;;;2.28;;
24273;SDS011;12392;42.678;23.380;2023-02-01T01:11:11;2.92;;;1.80;;
24273;SDS011;12392;42.678;23.380;2023-02-01T01:13:41;2.72;;;2.10;;
24273;SDS011;12392;42.678;23.380;2023-02-01T01:16:08;2.28;;;2.08;;
24273;SDS011;12392;42.678;23.380;2023-02-01T01:18:35;4.22;;;1.67;;
24273;SDS011;12392;42.678;23.380;2023-02-01T01:21:01;2.10;;;1.58;;
24273;SDS011;12392;42.678;23.380;2023-02-01T01:23:29;4.15;;;2.00;;
24273;SDS011;12392;42.678;23.380;2023-02-01T01:25:55;5.13;;;1.90;;
24273;SDS011;12392;42.678;23.380;2023-02-01T01:28:21;4.50;;;2.00;;
24273;SDS011;12392;42.678;23.380;2023-02-01T01:30:47;3.60;;;1.63;;
24273;SDS011;12392;42.678;23.380;2023-02-01T01:33:13;3.97;;;1.83;;
24273;SDS011;12392;42.678;23.380;2023-02-01T01:35:39;2.35;;;1.80;;
24273;SDS011;12392;42.678;23.380;2023-02-01T01:38:04;4.05;;;1.65;;
24273;SDS011;12392;42.678;23.380;2023-02-01T01:40:30;2.22;;;1.90;;
24273;SDS011;12392;42.678;23.380;2023-02-01T01:42:56;5.43;;;2.05;;
24273;SDS011;12392;42.678;23.380;2023-02-01T01:45:27;2.97;;;1.77;;
24273;SDS011;12392;42.678;23.380;2023-02-01T01:47:55;2.47;;;1.57;;
24273;SDS011;12392;42.678;23.380;2023-02-01T01:50:33;6.05;;;1.65;;
24273;SDS011;12392;42.678;23.380;2023-02-01T01:53:03;3.35;;;1.45;;
24273;SDS011;12392;42.678;23.380;2023-02-01T01:55:31;2.97;;;1.42;;
24273;SDS011;12392;42.678;23.380;2023-02-01T01:57:59;2.38;;;1.50;;
24273;SDS011;12392;42.678;23.380;2023-02-01T02:00:28;2.22;;;1.20;;
24273;SDS011;12392;42.678;23.380;2023-02-01T02:02:58;3.45;;;1.50;;
24273;SDS011;12392;42.678;23.380;2023-02-01T02:05:29;3.08;;;1.33;;
24273;SDS011;12392;42.678;23.380;2023-02-01T02:07:56;2.78;;;1.60;;
24273;SDS011;12392;42.678;23.380;2023-02-01T02:10:24;2.38;;;1.40;;
24273;SDS011;12392;42.678;23.380;2023-02-01T02:13:10;2.05;;;1.40;;
24273;SDS011;12392;42.678;23.380;2023-02-01T02:15:36;5.30;;;1.80;;
24273;SDS011;12392;42.678;23.380;2023-02-01T02:18:12;3.83;;;2.00;;
24273;SDS011;12392;42.678;23.380;2023-02-01T02:29:04;3.00;;;1.52;;
24273;SDS011;12392;42.678;23.380;2023-02-01T02:34:46;2.30;;;1.42;;
24273;SDS011;12392;42.678;23.380;2023-02-01T02:37:30;6.82;;;2.03;;
24273;SDS011;12392;42.678;23.380;2023-02-01T02:48:27;2.15;;;1.42;;
24273;SDS011;12392;42.678;23.380;2023-02-01T02:51:07;2.75;;;1.65;;
24273;SDS011;12392;42.678;23.380;2023-02-01T02:54:13;2.78;;;1.10;;
24273;SDS011;12392;42.678;23.380;2023-02-01T02:56:59;3.22;;;1.50;;
24273;SDS011;12392;42.678;23.380;2023-02-01T02:59:46;3.22;;;1.25;;
24273;SDS011;12392;42.678;23.380;2023-02-01T03:02:31;2.45;;;1.35;;
24273;SDS011;12392;42.678;23.380;2023-02-01T03:05:16;2.72;;;1.42;;
24273;SDS011;12392;42.678;23.380;2023-02-01T03:07:46;2.28;;;1.45;;
24273;SDS011;12392;42.678;23.380;2023-02-01T03:15:52;3.35;;;1.48;;
24273;SDS011;12392;42.678;23.380;2023-02-01T03:18:26;2.58;;;1.23;;
24273;SDS011;12392;42.678;23.380;2023-02-01T03:20:56;3.75;;;1.67;;
24273;SDS011;12392;42.678;23.380;2023-02-01T03:23:26;4.93;;;1.38;;
24273;SDS011;12392;42.678;23.380;2023-02-01T03:25:54;2.30;;;1.35;;
24273;SDS011;12392;42.678;23.380;2023-02-01T03:28:20;3.28;;;1.60;;
24273;SDS011;12392;42.678;23.380;2023-02-01T03:30:48;4.25;;;1.25;;
24273;SDS011;12392;42.678;23.380;2023-02-01T03:33:17;1.60;;;1.48;;
24273;SDS011;12392;42.678;23.380;2023-02-01T03:41:47;1.15;;;1.05;;
24273;SDS011;12392;42.678;23.380;2023-02-01T03:44:36;1.25;;;1.10;;
24273;SDS011;12392;42.678;23.380;2023-02-01T03:47:16;4.05;;;1.13;;
24273;SDS011;12392;42.678;23.380;2023-02-01T03:49:58;2.30;;;1.17;;
24273;SDS011;12392;42.678;23.380;2023-02-01T03:52:37;2.47;;;1.30;;
24273;SDS011;12392;42.678;23.380;2023-02-01T03:55:08;2.72;;;1.30;;
24273;SDS011;12392;42.678;23.380;2023-02-01T03:57:37;2.33;;;1.10;;
24273;SDS011;12392;42.678;23.380;2023-02-01T04:00:13;6.82;;;1.52;;
24273;SDS011;12392;42.678;23.380;2023-02-01T04:02:41;2.88;;;1.00;;
24273;SDS011;12392;42.678;23.380;2023-02-01T04:05:07;1.98;;;1.65;;
24273;SDS011;12392;42.678;23.380;2023-02-01T04:07:33;1.63;;;1.15;;
24273;SDS011;12392;42.678;23.380;2023-02-01T04:09:59;2.33;;;1.45;;
24273;SDS011;12392;42.678;23.380;2023-02-01T04:12:24;1.75;;;1.10;;
24273;SDS011;12392;42.678;23.380;2023-02-01T04:14:50;1.38;;;1.00;;
24273;SDS011;12392;42.678;23.380;2023-02-01T04:17:16;2.65;;;1.40;;
24273;SDS011;12392;42.678;23.380;2023-02-01T04:19:41;1.48;;;1.00;;
24273;SDS011;12392;42.678;23.380;2023-02-01T04:22:07;3.38;;;1.10;;
24273;SDS011;12392;42.678;23.380;2023-02-01T04:24:33;1.48;;;1.00;;
24273;SDS011;12392;42.678;23.380;2023-02-01T04:26:58;1.48;;;0.90;;
24273;SDS011;12392;42.678;23.380;2023-02-01T04:29:24;4.97;;;1.30;;
24273;SDS011;12392;42.678;23.380;2023-02-01T04:31:49;3.70;;;1.42;;
24273;SDS011;12392;42.678;23.380;2023-02-01T04:34:15;2.30;;;1.33;;
24273;SDS011;12392;42.678;23.380;2023-02-01T04:36:41;2.20;;;1.52;;
24273;SDS011;12392;42.678;23.380;2023-02-01T04:39:08;4.40;;;1.58;;
24273;SDS011;12392;42.678;23.380;2023-02-01T04:41:34;5.05;;;1.73;;
24273;SDS011;12392;42.678;23.380;2023-02-01T04:44:00;4.78;;;1.45;;
24273;SDS011;12392;42.678;23.380;2023-02-01T04:46:25;3.17;;;1.88;;
24273;SDS011;12392;42.678;23.380;2023-02-01T04:48:51;2.55;;;1.45;;
24273;SDS011;12392;42.678;23.380;2023-02-01T04:51:17;3.83;;;1.63;;
24273;SDS011;12392;42.678;23.380;2023-02-01T04:53:43;2.58;;;1.52;;
24273;SDS011;12392;42.678;23.380;2023-02-01T04:56:09;1.92;;;1.20;;
24273;SDS011;12392;42.678;23.380;2023-02-01T04:58:35;3.67;;;2.33;;
24273;SDS011;12392;42.678;23.380;2023-02-01T05:01:04;5.88;;;1.77;;
24273;SDS011;12392;42.678;23.380;2023-02-01T05:03:34;4.68;;;1.50;;
24273;SDS011;12392;42.678;23.380;2023-02-01T05:05:59;3.15;;;2.10;;
24273;SDS011;12392;42.678;23.380;2023-02-01T05:08:25;6.05;;;1.70;;
24273;SDS011;12392;42.678;23.380;2023-02-01T05:10:52;4.20;;;2.30;;
24273;SDS011;12392;42.678;23.380;2023-02-01T05:13:18;3.25;;;2.05;;
24273;SDS011;12392;42.678;23.380;2023-02-01T05:16:02;10.20;;;2.72;;
24273;SDS011;12392;42.678;23.380;2023-02-01T05:18:28;4.47;;;1.85;;
24273;SDS011;12392;42.678;23.380;2023-02-01T05:20:53;3.35;;;2.10;;
24273;SDS011;12392;42.678;23.380;2023-02-01T05:23:19;2.47;;;2.17;;
24273;SDS011;12392;42.678;23.380;2023-02-01T05:25:45;4.05;;;1.95;;
24273;SDS011;12392;42.678;23.380;2023-02-01T05:28:10;3.83;;;2.22;;
24273;SDS011;12392;42.678;23.380;2023-02-01T05:30:36;4.95;;;2.20;;
24273;SDS011;12392;42.678;23.380;2023-02-01T05:33:02;2.53;;;2.00;;
24273;SDS011;12392;42.678;23.380;2023-02-01T05:35:28;3.08;;;2.20;;
24273;SDS011;12392;42.678;23.380;2023-02-01T05:37:53;4.15;;;2.33;;
24273;SDS011;12392;42.678;23.380;2023-02-01T05:40:19;5.85;;;2.20;;
24273;SDS011;12392;42.678;23.380;2023-02-01T05:42:45;2.42;;;1.80;;
24273;SDS011;12392;42.678;23.380;2023-02-01T05:45:11;7.43;;;2.40;;
24273;SDS011;12392;42.678;23.380;2023-02-01T05:47:36;7.25;;;2.38;;
24273;SDS011;12392;42.678;23.380;2023-02-01T05:50:03;5.63;;;2.30;;
24273;SDS011;12392;42.678;23.380;2023-02-01T05:52:29;3.75;;;2.35;;
24273;SDS011;12392;42.678;23.380;2023-02-01T05:54:55;3.70;;;2.10;;
24273;SDS011;12392;42.678;23.380;2023-02-01T05:57:20;3.20;;;2.20;;
24273;SDS011;12392;42.678;23.380;2023-02-01T05:59:46;3.80;;;1.83;;
24273;SDS011;12392;42.678;23.380;2023-02-01T06:02:13;6.18;;;2.53;;
24273;SDS011;12392;42.678;23.380;2023-02-01T06:04:42;12.63;;;2.42;;
24273;SDS011;12392;42.678;23.380;2023-02-01T06:07:08;4.00;;;1.80;;
24273;SDS011;12392;42.678;23.380;2023-02-01T06:09:35;7.72;;;2.42;;
24273;SDS011;12392;42.678;23.380;2023-02-01T06:12:01;8.10;;;1.70;;
24273;SDS011;12392;42.678;23.380;2023-02-01T06:14:28;4.45;;;2.53;;
24273;SDS011;12392;42.678;23.380;2023-02-01T06:16:54;6.35;;;2.55;;
24273;SDS011;12392;42.678;23.380;2023-02-01T06:19:20;5.10;;;1.90;;
24273;SDS011;12392;42.678;23.380;2023-02-01T06:21:46;2.58;;;2.15;;
24273;SDS011;12392;42.678;23.380;2023-02-01T06:24:12;8.35;;;2.28;;
24273;SDS011;12392;42.678;23.380;2023-02-01T06:26:38;5.75;;;2.10;;
24273;SDS011;12392;42.678;23.380;2023-02-01T06:29:05;7.50;;;2.08;;
24273;SDS011;12392;42.678;23.380;2023-02-01T06:31:36;4.50;;;2.20;;
24273;SDS011;12392;42.678;23.380;2023-02-01T06:34:02;2.60;;;1.77;;
24273;SDS011;12392;42.678;23.380;2023-02-01T06:36:28;5.80;;;1.85;;
24273;SDS011;12392;42.678;23.380;2023-02-01T06:38:55;2.85;;;1.70;;
24273;SDS011;12392;42.678;23.380;2023-02-01T06:41:21;8.27;;;1.70;;
24273;SDS011;12392;42.678;23.380;2023-02-01T06:43:48;2.03;;;1.77;;
24273;SDS011;12392;42.678;23.380;2023-02-01T06:46:14;2.78;;;1.90;;
24273;SDS011;12392;42.678;23.380;2023-02-01T06:48:40;2.97;;;1.70;;
24273;SDS011;12392;42.678;23.380;2023-02-01T06:51:14;7.32;;;1.15;;
24273;SDS011;12392;42.678;23.380;2023-02-01T06:53:50;6.18;;;1.58;;
24273;SDS011;12392;42.678;23.380;2023-02-01T06:56:15;3.35;;;1.55;;
24273;SDS011;12392;42.678;23.380;2023-02-01T06:58:41;5.10;;;1.77;;
24273;SDS011;12392;42.678;23.380;2023-02-01T07:01:08;2.40;;;1.50;;
24273;SDS011;12392;42.678;23.380;2023-02-01T07:03:34;2.83;;;1.50;;
24273;SDS011;12392;42.678;23.380;2023-02-01T07:06:00;3.40;;;1.65;;
24273;SDS011;12392;42.678;23.380;2023-02-01T07:08:26;2.33;;;1.58;;
24273;SDS011;12392;42.678;23.380;2023-02-01T07:10:53;3.28;;;1.55;;
24273;SDS011;12392;42.678;23.380;2023-02-01T07:13:18;4.30;;;1.90;;
24273;SDS011;12392;42.678;23.380;2023-02-01T07:15:44;4.03;;;1.95;;
24273;SDS011;12392;42.678;23.380;2023-02-01T07:18:12;5.05;;;1.88;;
24273;SDS011;12392;42.678;23.380;2023-02-01T07:20:39;3.05;;;1.75;;
24273;SDS011;12392;42.678;23.380;2023-02-01T07:23:05;5.20;;;1.30;;
24273;SDS011;12392;42.678;23.380;2023-02-01T07:25:31;4.78;;;1.40;;
24273;SDS011;12392;42.678;23.380;2023-02-01T07:27:57;5.18;;;1.75;;
24273;SDS011;12392;42.678;23.380;2023-02-01T07:30:23;7.95;;;1.42;;
24273;SDS011;12392;42.678;23.380;2023-02-01T07:32:48;5.43;;;1.65;;
24273;SDS011;12392;42.678;23.380;2023-02-01T07:35:14;3.72;;;1.63;;
24273;SDS011;12392;42.678;23.380;2023-02-01T07:37:40;2.30;;;1.77;;
24273;SDS011;12392;42.678;23.380;2023-02-01T07:40:06;4.45;;;1.48;;
24273;SDS011;12392;42.678;23.380;2023-02-01T07:42:32;3.58;;;1.40;;
24273;SDS011;12392;42.678;23.380;2023-02-01T07:44:58;4.20;;;1.55;;
24273;SDS011;12392;42.678;23.380;2023-02-01T07:47:24;2.22;;;1.27;;
24273;SDS011;12392;42.678;23.380;2023-02-01T07:49:50;1.98;;;1.08;;
24273;SDS011;12392;42.678;23.380;2023-02-01T07:52:16;4.57;;;1.10;;
24273;SDS011;12392;42.678;23.380;2023-02-01T07:54:41;7.65;;;1.77;;
24273;SDS011;12392;42.678;23.380;2023-02-01T07:57:08;3.08;;;1.67;;
24273;SDS011;12392;42.678;23.380;2023-02-01T07:59:36;5.43;;;1.50;;
24273;SDS011;12392;42.678;23.380;2023-02-01T08:02:22;3.65;;;1.75;;
24273;SDS011;12392;42.678;23.380;2023-02-01T08:04:47;3.13;;;1.60;;
24273;SDS011;12392;42.678;23.380;2023-02-01T08:07:13;4.88;;;1.90;;
24273;SDS011;12392;42.678;23.380;2023-02-01T08:09:39;4.32;;;1.35;;
24273;SDS011;12392;42.678;23.380;2023-02-01T08:12:04;2.33;;;1.60;;
24273;SDS011;12392;42.678;23.380;2023-02-01T08:14:30;6.75;;;2.00;;
24273;SDS011;12392;42.678;23.380;2023-02-01T08:16:56;8.60;;;2.05;;
24273;SDS011;12392;42.678;23.380;2023-02-01T08:19:21;7.15;;;1.58;;
24273;SDS011;12392;42.678;23.380;2023-02-01T08:21:47;6.78;;;2.15;;
24273;SDS011;12392;42.678;23.380;2023-02-01T08:24:13;3.95;;;1.30;;
24273;SDS011;12392;42.678;23.380;2023-02-01T08:26:39;3.50;;;1.10;;
24273;SDS011;12392;42.678;23.380;2023-02-01T08:29:05;4.90;;;1.80;;
24273;SDS011;12392;42.678;23.380;2023-02-01T08:31:32;4.45;;;2.03;;
24273;SDS011;12392;42.678;23.380;2023-02-01T08:33:59;4.40;;;1.27;;
24273;SDS011;12392;42.678;23.380;2023-02-01T08:36:27;5.13;;;1.85;;
24273;SDS011;12392;42.678;23.380;2023-02-01T08:38:53;3.92;;;2.00;;
24273;SDS011;12392;42.678;23.380;2023-02-01T08:41:20;4.00;;;1.70;;
24273;SDS011;12392;42.678;23.380;2023-02-01T08:43:47;4.32;;;1.77;;
24273;SDS011;12392;42.678;23.380;2023-02-01T08:46:13;3.25;;;1.77;;
24273;SDS011;12392;42.678;23.380;2023-02-01T08:48:39;6.80;;;1.75;;
24273;SDS011;12392;42.678;23.380;2023-02-01T08:51:06;4.40;;;1.58;;
24273;SDS011;12392;42.678;23.380;2023-02-01T08:53:33;6.15;;;1.40;;
24273;SDS011;12392;42.678;23.380;2023-02-01T08:55:58;2.05;;;1.20;;
24273;SDS011;12392;42.678;23.380;2023-02-01T08:58:25;2.33;;;1.15;;
24273;SDS011;12392;42.678;23.380;2023-02-01T09:00:51;1.73;;;1.20;;
24273;SDS011;12392;42.678;23.380;2023-02-01T09:03:16;2.83;;;1.20;;
24273;SDS011;12392;42.678;23.380;2023-02-01T09:05:42;3.63;;;1.90;;
24273;SDS011;12392;42.678;23.380;2023-02-01T09:08:08;1.95;;;1.30;;
24273;SDS011;12392;42.678;23.380;2023-02-01T09:10:34;1.88;;;1.02;;
24273;SDS011;12392;42.678;23.380;2023-02-01T09:13:01;5.53;;;1.80;;
24273;SDS011;12392;42.678;23.380;2023-02-01T09:15:27;10.52;;;2.13;;
24273;SDS011;12392;42.678;23.380;2023-02-01T09:17:53;2.75;;;1.67;;
24273;SDS011;12392;42.678;23.380;2023-02-01T09:20:19;4.68;;;1.27;;
24273;SDS011;12392;42.678;23.380;2023-02-01T09:22:48;2.60;;;1.33;;
24273;SDS011;12392;42.678;23.380;2023-02-01T09:25:15;3.38;;;1.48;;
24273;SDS011;12392;42.678;23.380;2023-02-01T09:27:41;4.40;;;1.77;;
24273;SDS011;12392;42.678;23.380;2023-02-01T09:30:07;5.57;;;1.02;;
24273;SDS011;12392;42.678;23.380;2023-02-01T09:32:33;3.00;;;1.13;;
24273;SDS011;12392;42.678;23.380;2023-02-01T09:34:59;2.92;;;1.30;;
24273;SDS011;12392;42.678;23.380;2023-02-01T09:37:24;1.25;;;0.80;;
24273;SDS011;12392;42.678;23.380;2023-02-01T09:39:50;3.05;;;1.25;;
24273;SDS011;12392;42.678;23.380;2023-02-01T09:48:08;6.78;;;2.30;;
24273;SDS011;12392;42.678;23.380;2023-02-01T09:50:39;2.08;;;1.13;;
24273;SDS011;12392;42.678;23.380;2023-02-01T09:56:33;3.63;;;1.20;;
24273;SDS011;12392;42.678;23.380;2023-02-01T09:58:55;3.25;;;0.93;;
24273;SDS011;12392;42.678;23.380;2023-02-01T10:01:25;3.58;;;1.90;;
24273;SDS011;12392;42.678;23.380;2023-02-01T10:03:52;5.30;;;1.40;;
24273;SDS011;12392;42.678;23.380;2023-02-01T10:17:08;7.07;;;1.02;;
24273;SDS011;12392;42.678;23.380;2023-02-01T10:25:26;3.35;;;1.30;;
24273;SDS011;12392;42.678;23.380;2023-02-01T10:27:54;3.38;;;1.38;;
24273;SDS011;12392;42.678;23.380;2023-02-01T10:30:24;3.67;;;1.70;;
24273;SDS011;12392;42.678;23.380;2023-02-01T10:32:55;3.42;;;1.25;;
24273;SDS011;12392;42.678;23.380;2023-02-01T10:35:24;2.30;;;1.08;;
24273;SDS011;12392;42.678;23.380;2023-02-01T10:38:00;5.35;;;1.40;;
24273;SDS011;12392;42.678;23.380;2023-02-01T10:40:26;5.38;;;1.33;;
24273;SDS011;12392;42.678;23.380;2023-02-01T10:42:53;9.32;;;1.30;;
24273;SDS011;12392;42.678;23.380;2023-02-01T10:45:22;2.42;;;0.95;;
24273;SDS011;12392;42.678;23.380;2023-02-01T10:47:51;6.57;;;1.00;;
24273;SDS011;12392;42.678;23.380;2023-02-01T10:50:31;2.13;;;1.08;;
24273;SDS011;12392;42.678;23.380;2023-02-01T10:53:25;5.72;;;1.40;;
24273;SDS011;12392;42.678;23.380;2023-02-01T10:55:57;2.65;;;1.13;;
24273;SDS011;12392;42.678;23.380;2023-02-01T10:58:27;1.52;;;1.00;;
24273;SDS011;12392;42.678;23.380;2023-02-01T11:00:56;4.72;;;1.13;;
24273;SDS011;12392;42.678;23.380;2023-02-01T11:03:35;1.63;;;0.95;;
24273;SDS011;12392;42.678;23.380;2023-02-01T11:08:51;3.53;;;1.50;;
24273;SDS011;12392;42.678;23.380;2023-02-01T11:11:17;3.00;;;1.05;;
24273;SDS011;12392;42.678;23.380;2023-02-01T11:13:43;3.47;;;1.50;;
24273;SDS011;12392;42.678;23.380;2023-02-01T11:16:13;2.80;;;1.13;;
24273;SDS011;12392;42.678;23.380;2023-02-01T11:18:40;6.13;;;1.42;;
24273;SDS011;12392;42.678;23.380;2023-02-01T11:21:06;1.45;;;1.00;;
24273;SDS011;12392;42.678;23.380;2023-02-01T11:23:35;4.47;;;1.33;;
24273;SDS011;12392;42.678;23.380;2023-02-01T11:26:24;1.58;;;0.80;;
24273;SDS011;12392;42.678;23.380;2023-02-01T11:28:58;2.80;;;1.02;;
24273;SDS011;12392;42.678;23.380;2023-02-01T11:31:27;1.58;;;0.73;;
24273;SDS011;12392;42.678;23.380;2023-02-01T11:33:55;2.03;;;0.65;;
24273;SDS011;12392;42.678;23.380;2023-02-01T11:36:33;3.67;;;1.02;;
24273;SDS011;12392;42.678;23.380;2023-02-01T11:41:44;4.57;;;1.13;;
24273;SDS011;12392;42.678;23.380;2023-02-01T11:44:35;1.65;;;0.90;;
24273;SDS011;12392;42.678;23.380;2023-02-01T11:49:49;1.25;;;0.70;;
24273;SDS011;12392;42.678;23.380;2023-02-01T12:00:49;1.63;;;0.70;;
24273;SDS011;12392;42.678;23.380;2023-02-01T12:14:43;1.17;;;0.70;;
24273;SDS011;12392;42.678;23.380;2023-02-01T12:22:42;2.13;;;0.75;;
24273;SDS011;12392;42.678;23.380;2023-02-01T12:28:03;2.28;;;1.08;;
24273;SDS011;12392;42.678;23.380;2023-02-01T12:36:21;1.10;;;0.60;;
24273;SDS011;12392;42.678;23.380;2023-02-01T12:47:14;2.53;;;0.52;;
24273;SDS011;12392;42.678;23.380;2023-02-01T12:55:32;2.17;;;0.90;;
24273;SDS011;12392;42.678;23.380;2023-02-01T12:58:08;0.98;;;0.73;;
24273;SDS011;12392;42.678;23.380;2023-02-01T13:00:52;2.50;;;1.10;;
24273;SDS011;12392;42.678;23.380;2023-02-01T13:03:34;3.67;;;2.15;;
24273;SDS011;12392;42.678;23.380;2023-02-01T13:11:31;1.60;;;0.80;;
24273;SDS011;12392;42.678;23.380;2023-02-01T13:14:10;7.05;;;0.85;;
24273;SDS011;12392;42.678;23.380;2023-02-01T13:16:47;1.98;;;1.17;;
24273;SDS011;12392;42.678;23.380;2023-02-01T13:19:23;1.58;;;0.90;;
24273;SDS011;12392;42.678;23.380;2023-02-01T13:21:53;3.83;;;1.15;;
24273;SDS011;12392;42.678;23.380;2023-02-01T13:24:37;1.92;;;0.70;;
24273;SDS011;12392;42.678;23.380;2023-02-01T13:27:08;1.83;;;0.80;;
24273;SDS011;12392;42.678;23.380;2023-02-01T13:32:39;1.30;;;0.93;;
24273;SDS011;12392;42.678;23.380;2023-02-01T13:43:59;1.65;;;0.73;;
24273;SDS011;12392;42.678;23.380;2023-02-01T13:46:29;2.50;;;0.85;;
24273;SDS011;12392;42.678;23.380;2023-02-01T13:48:56;0.52;;;0.47;;
24273;SDS011;12392;42.678;23.380;2023-02-01T13:51:40;1.90;;;0.77;;
24273;SDS011;12392;42.678;23.380;2023-02-01T13:54:22;2.00;;;0.60;;
24273;SDS011;12392;42.678;23.380;2023-02-01T13:56:49;1.88;;;1.00;;
24273;SDS011;12392;42.678;23.380;2023-02-01T14:05:54;1.80;;;0.95;;
24273;SDS011;12392;42.678;23.380;2023-02-01T14:42:42;2.77;;;1.30;;
24273;SDS011;12392;42.678;23.380;2023-02-01T14:47:45;4.40;;;1.27;;
24273;SDS011;12392;42.678;23.380;2023-02-01T14:50:31;2.20;;;1.13;;
24273;SDS011;12392;42.678;23.380;2023-02-01T14:55:33;6.00;;;1.60;;
24273;SDS011;12392;42.678;23.380;2023-02-01T14:58:25;1.65;;;1.00;;
24273;SDS011;12392;42.678;23.380;2023-02-01T15:09:09;2.35;;;1.02;;
24273;SDS011;12392;42.678;23.380;2023-02-01T15:14:24;0.88;;;0.75;;
24273;SDS011;12392;42.678;23.380;2023-02-01T15:16:51;2.47;;;1.05;;
24273;SDS011;12392;42.678;23.380;2023-02-01T15:19:21;2.33;;;1.02;;
24273;SDS011;12392;42.678;23.380;2023-02-01T15:21:50;3.03;;;1.20;;
24273;SDS011;12392;42.678;23.380;2023-02-01T15:24:28;2.35;;;1.00;;
24273;SDS011;12392;42.678;23.380;2023-02-01T15:26:55;2.85;;;1.08;;
24273;SDS011;12392;42.678;23.380;2023-02-01T15:29:22;4.22;;;1.50;;
24273;SDS011;12392;42.678;23.380;2023-02-01T15:31:52;1.33;;;1.17;;
24273;SDS011;12392;42.678;23.380;2023-02-01T15:34:18;2.83;;;1.30;;
24273;SDS011;12392;42.678;23.380;2023-02-01T15:36:45;2.10;;;1.17;;
24273;SDS011;12392;42.678;23.380;2023-02-01T15:39:18;2.10;;;1.58;;
24273;SDS011;12392;42.678;23.380;2023-02-01T15:41:55;3.28;;;1.52;;
24273;SDS011;12392;42.678;23.380;2023-02-01T15:44:42;4.40;;;1.48;;
24273;SDS011;12392;42.678;23.380;2023-02-01T15:47:15;3.92;;;1.75;;
24273;SDS011;12392;42.678;23.380;2023-02-01T15:52:19;5.30;;;2.08;;
24273;SDS011;12392;42.678;23.380;2023-02-01T15:54:47;5.72;;;2.65;;
24273;SDS011;12392;42.678;23.380;2023-02-01T15:57:47;5.25;;;2.45;;
24273;SDS011;12392;42.678;23.380;2023-02-01T16:00:08;12.05;;;2.33;;
24273;SDS011;12392;42.678;23.380;2023-02-01T16:02:52;4.10;;;2.00;;
24273;SDS011;12392;42.678;23.380;2023-02-01T16:05:39;3.78;;;2.10;;
24273;SDS011;12392;42.678;23.380;2023-02-01T16:08:21;3.97;;;1.55;;
24273;SDS011;12392;42.678;23.380;2023-02-01T16:10:50;3.35;;;1.55;;
24273;SDS011;12392;42.678;23.380;2023-02-01T16:13:40;5.00;;;2.25;;
24273;SDS011;12392;42.678;23.380;2023-02-01T16:16:07;5.63;;;1.85;;
24273;SDS011;12392;42.678;23.380;2023-02-01T16:18:38;6.13;;;2.05;;
24273;SDS011;12392;42.678;23.380;2023-02-01T16:21:05;3.75;;;1.40;;
24273;SDS011;12392;42.678;23.380;2023-02-01T16:23:32;2.88;;;1.55;;
24273;SDS011;12392;42.678;23.380;2023-02-01T16:25:58;4.82;;;1.88;;
24273;SDS011;12392;42.678;23.380;2023-02-01T16:28:24;3.33;;;1.25;;
24273;SDS011;12392;42.678;23.380;2023-02-01T16:30:51;3.83;;;1.67;;
24273;SDS011;12392;42.678;23.380;2023-02-01T16:33:18;2.92;;;1.48;;
24273;SDS011;12392;42.678;23.380;2023-02-01T16:35:47;3.08;;;1.38;;
24273;SDS011;12392;42.678;23.380;2023-02-01T16:38:13;2.53;;;1.45;;
24273;SDS011;12392;42.678;23.380;2023-02-01T16:40:44;2.40;;;1.27;;
24273;SDS011;12392;42.678;23.380;2023-02-01T16:43:20;2.83;;;1.45;;
24273;SDS011;12392;42.678;23.380;2023-02-01T16:45:47;5.43;;;1.42;;
24273;SDS011;12392;42.678;23.380;2023-02-01T16:48:36;4.88;;;1.75;;
24273;SDS011;12392;42.678;23.380;2023-02-01T16:51:03;4.13;;;1.30;;
24273;SDS011;12392;42.678;23.380;2023-02-01T16:53:32;2.13;;;1.38;;
24273;SDS011;12392;42.678;23.380;2023-02-01T16:55:58;2.50;;;1.52;;
24273;SDS011;12392;42.678;23.380;2023-02-01T16:58:24;2.15;;;1.10;;
24273;SDS011;12392;42.678;23.380;2023-02-01T17:00:51;3.10;;;1.30;;
24273;SDS011;12392;42.678;23.380;2023-02-01T17:03:17;4.53;;;1.67;;
24273;SDS011;12392;42.678;23.380;2023-02-01T17:05:52;4.22;;;1.30;;
24273;SDS011;12392;42.678;23.380;2023-02-01T17:08:22;2.03;;;1.08;;
24273;SDS011;12392;42.678;23.380;2023-02-01T17:10:54;2.97;;;1.38;;
24273;SDS011;12392;42.678;23.380;2023-02-01T17:13:20;3.40;;;1.80;;
24273;SDS011;12392;42.678;23.380;2023-02-01T17:15:50;5.53;;;1.38;;
24273;SDS011;12392;42.678;23.380;2023-02-01T17:18:19;3.20;;;1.48;;
24273;SDS011;12392;42.678;23.380;2023-02-01T17:20:45;2.33;;;1.40;;
24273;SDS011;12392;42.678;23.380;2023-02-01T17:23:13;3.25;;;1.73;;
24273;SDS011;12392;42.678;23.380;2023-02-01T17:25:41;1.58;;;1.05;;
24273;SDS011;12392;42.678;23.380;2023-02-01T17:28:08;3.75;;;1.45;;
24273;SDS011;12392;42.678;23.380;2023-02-01T17:30:34;3.28;;;1.50;;
24273;SDS011;12392;42.678;23.380;2023-02-01T17:32:59;3.88;;;1.80;;
24273;SDS011;12392;42.678;23.380;2023-02-01T17:35:26;4.82;;;1.60;;
24273;SDS011;12392;42.678;23.380;2023-02-01T17:37:52;3.35;;;1.77;;
24273;SDS011;12392;42.678;23.380;2023-02-01T17:40:18;3.85;;;1.55;;
24273;SDS011;12392;42.678;23.380;2023-02-01T17:42:44;4.93;;;1.83;;
24273;SDS011;12392;42.678;23.380;2023-02-01T17:48:06;10.30;;;2.58;;
24273;SDS011;12392;42.678;23.380;2023-02-01T17:50:34;5.43;;;2.30;;
24273;SDS011;12392;42.678;23.380;2023-02-01T17:53:01;5.88;;;2.85;;
24273;SDS011;12392;42.678;23.380;2023-02-01T17:55:31;6.93;;;2.47;;
24273;SDS011;12392;42.678;23.380;2023-02-01T17:58:02;4.90;;;2.15;;
24273;SDS011;12392;42.678;23.380;2023-02-01T18:00:28;4.57;;;1.95;;
24273;SDS011;12392;42.678;23.380;2023-02-01T18:02:54;5.10;;;2.60;;
24273;SDS011;12392;42.678;23.380;2023-02-01T18:07:48;8.73;;;2.60;;